Time;durP1;ratioP1;P1;durP2;ratioP2;P2;SDS_P1;SDS_P2;PMS_P1;PMS_P2;Temp;Humidity;BMP_temperature;BMP_pressure;BME280_temperature;BME280_humidity;BME280_pressure;Samples;Min_cycle;Max_cycle;Signal;HPM_P1;HPM_P2
2022/02/27 00:00:38;;;;;;;1.80;1.63;;;;;;;;;;1676063;29;21603;-50
2022/02/27 00:01:29;;;;;;;3.63;1.70;;;;;;;;;;1676088;29;21488;-53
2022/02/27 00:02:21;;;;;;;9.15;2.20;;;;;;;;;;1677301;29;21700;-52
2022/02/27 00:03:13;;;;;;;4.45;1.60;;;;;;;;;;1677181;29;21620;-51
2022/02/27 00:04:05;;;;;;;2.33;1.40;;;;;;;;;;1677670;29;21559;-51
2022/02/27 00:04:56;;;;;;;6.82;1.67;;;;;;;;;;1677331;29;21646;-49
2022/02/27 00:05:48;;;;;;;4.90;1.95;;;;;;;;;;1674917;29;21504;-52
2022/02/27 00:06:40;;;;;;;5.85;1.92;;;;;;;;;;1676215;29;21508;-53
2022/02/27 00:07:34;;;;;;;6.05;1.70;;;;;;;;;;1677184;29;21548;-50
2022/02/27 00:08:25;;;;;;;5.68;1.67;;;;;;;;;;1677435;29;21550;-49
2022/02/27 00:09:17;;;;;;;7.30;2.00;;;;;;;;;;1674734;29;21715;-50
2022/02/27 00:10:09;;;;;;;8.32;1.80;;;;;;;;;;1677343;29;21598;-50
2022/02/27 00:11:01;;;;;;;6.57;2.05;;;;;;;;;;1677332;29;21854;-52
2022/02/27 00:11:52;;;;;;;3.83;1.92;;;;;;;;;;1676103;29;21608;-51
2022/02/27 00:12:44;;;;;;;8.13;1.75;;;;;;;;;;1678110;29;21591;-50
2022/02/27 00:13:35;;;;;;;7.22;1.95;;;;;;;;;;1678405;29;21565;-53
2022/02/27 00:14:28;;;;;;;4.22;1.98;;;;;;;;;;1677242;29;21938;-49
2022/02/27 00:15:19;;;;;;;38.55;3.03;;;;;;;;;;1677312;29;21655;-52
2022/02/27 00:16:11;;;;;;;12.55;2.20;;;;;;;;;;1676172;29;22299;-52
2022/02/27 00:17:03;;;;;;;4.78;2.50;;;;;;;;;;1678342;29;21511;-51
2022/02/27 00:17:55;;;;;;;18.65;2.05;;;;;;;;;;1678451;29;21505;-53
2022/02/27 00:18:46;;;;;;;13.88;2.00;;;;;;;;;;1676924;29;21564;-52
2022/02/27 00:19:38;;;;;;;11.10;2.10;;;;;;;;;;1676338;29;22174;-51
2022/02/27 00:20:29;;;;;;;10.95;2.25;;;;;;;;;;1678441;29;21627;-50
2022/02/27 00:21:21;;;;;;;15.45;1.90;;;;;;;;;;1678166;29;21518;-51
2022/02/27 00:22:13;;;;;;;8.77;1.80;;;;;;;;;;1676980;29;21521;-49
2022/02/27 00:23:06;;;;;;;10.55;1.70;;;;;;;;;;1677354;29;22098;-50
2022/02/27 00:23:58;;;;;;;9.65;2.50;;;;;;;;;;1678440;29;22030;-49
2022/02/27 00:24:50;;;;;;;8.43;1.85;;;;;;;;;;1678351;29;21519;-49
2022/02/27 00:25:41;;;;;;;5.70;1.83;;;;;;;;;;1676757;29;21633;-50
2022/02/27 00:26:33;;;;;;;8.88;1.98;;;;;;;;;;1676415;29;22166;-52
2022/02/27 00:27:24;;;;;;;13.95;1.75;;;;;;;;;;1676463;29;21545;-50
2022/02/27 00:28:16;;;;;;;9.43;2.08;;;;;;;;;;1678384;29;22028;-50
2022/02/27 00:29:08;;;;;;;5.78;1.67;;;;;;;;;;1678313;29;21608;-50
2022/02/27 00:30:00;;;;;;;1.88;1.55;;;;;;;;;;1678392;29;21518;-51
2022/02/27 00:30:51;;;;;;;3.25;1.73;;;;;;;;;;1676804;29;21702;-53
2022/02/27 00:31:43;;;;;;;6.05;2.20;;;;;;;;;;1677192;29;22095;-53
2022/02/27 00:32:35;;;;;;;3.97;1.92;;;;;;;;;;1678287;29;21555;-52
2022/02/27 00:33:28;;;;;;;10.20;2.08;;;;;;;;;;1678172;29;21628;-52
2022/02/27 00:34:19;;;;;;;4.90;2.20;;;;;;;;;;1678431;29;21564;-53
2022/02/27 00:35:11;;;;;;;5.43;1.92;;;;;;;;;;1677593;29;21519;-49
2022/02/27 00:36:03;;;;;;;12.48;1.70;;;;;;;;;;1675187;29;21561;-52
2022/02/27 00:36:56;;;;;;;5.97;1.83;;;;;;;;;;1678252;29;21547;-53
2022/02/27 00:37:47;;;;;;;4.93;2.20;;;;;;;;;;1677522;29;21623;-52
2022/02/27 00:38:40;;;;;;;3.35;1.70;;;;;;;;;;1676442;29;21974;-53
2022/02/27 00:39:32;;;;;;;6.50;1.77;;;;;;;;;;1678369;29;21530;-52
2022/02/27 00:40:24;;;;;;;5.35;1.85;;;;;;;;;;1678261;29;21679;-53
2022/02/27 00:41:15;;;;;;;3.58;2.10;;;;;;;;;;1677410;29;21589;-50
2022/02/27 00:42:07;;;;;;;7.13;1.70;;;;;;;;;;1676706;29;22971;-53
2022/02/27 00:42:58;;;;;;;3.40;1.63;;;;;;;;;;1678251;29;21549;-51
2022/02/27 00:43:51;;;;;;;5.85;2.10;;;;;;;;;;1677440;29;21679;-49
2022/02/27 00:44:42;;;;;;;1.67;1.55;;;;;;;;;;1676266;29;21581;-53
2022/02/27 00:45:34;;;;;;;3.33;1.38;;;;;;;;;;1676975;29;22030;-53
2022/02/27 00:46:25;;;;;;;2.58;1.45;;;;;;;;;;1674687;29;21543;-49
2022/02/27 00:47:17;;;;;;;5.78;1.70;;;;;;;;;;1667952;29;21705;-51
2022/02/27 00:48:09;;;;;;;4.43;1.73;;;;;;;;;;1670295;29;21920;-50
2022/02/27 00:49:01;;;;;;;2.58;2.22;;;;;;;;;;1673314;29;21565;-52
2022/02/27 00:49:52;;;;;;;3.90;1.48;;;;;;;;;;1676962;29;21629;-49
2022/02/27 00:50:44;;;;;;;2.03;1.55;;;;;;;;;;1677173;29;21564;-52
2022/02/27 00:51:35;;;;;;;3.90;1.38;;;;;;;;;;1678247;29;22032;-50
2022/02/27 00:52:28;;;;;;;6.57;1.52;;;;;;;;;;1678284;29;21524;-52
2022/02/27 00:53:19;;;;;;;3.40;1.80;;;;;;;;;;1675655;29;21538;-50
2022/02/27 00:54:13;;;;;;;5.20;1.60;;;;;;;;;;1675211;29;21609;-51
2022/02/27 00:55:05;;;;;;;2.22;1.60;;;;;;;;;;1678186;29;21579;-52
2022/02/27 00:55:57;;;;;;;2.35;1.60;;;;;;;;;;1676734;29;21637;-50
2022/02/27 00:56:50;;;;;;;1.63;1.40;;;;;;;;;;1675282;29;21875;-51
2022/02/27 00:57:41;;;;;;;5.40;1.50;;;;;;;;;;1676783;29;21647;-52
2022/02/27 00:58:33;;;;;;;2.15;1.45;;;;;;;;;;1677052;29;22180;-52
2022/02/27 00:59:25;;;;;;;6.82;1.60;;;;;;;;;;1678208;29;21996;-50
2022/02/27 01:00:17;;;;;;;7.40;1.27;;;;;;;;;;1678093;29;21578;-52
2022/02/27 01:01:08;;;;;;;2.72;1.65;;;;;;;;;;1676673;29;21566;-52
2022/02/27 01:02:01;;;;;;;2.17;1.45;;;;;;;;;;1678287;29;21695;-51
2022/02/27 01:02:52;;;;;;;3.45;1.33;;;;;;;;;;1678051;29;22109;-50
2022/02/27 01:03:44;;;;;;;1.77;1.40;;;;;;;;;;1671240;29;21529;-53
2022/02/27 01:04:35;;;;;;;2.25;1.48;;;;;;;;;;1670396;29;22082;-50
2022/02/27 01:05:27;;;;;;;2.58;1.38;;;;;;;;;;1672847;29;21638;-52
2022/02/27 01:06:19;;;;;;;2.70;1.60;;;;;;;;;;1676718;29;21688;-50
2022/02/27 01:07:11;;;;;;;2.55;1.40;;;;;;;;;;1677750;29;21593;-53
2022/02/27 01:08:02;;;;;;;2.53;1.40;;;;;;;;;;1675857;29;21857;-50
2022/02/27 01:08:58;;;;;;;2.90;1.10;;;;;;;;;;1678057;29;21512;-52
2022/02/27 01:09:51;;;;;;;2.88;1.50;;;;;;;;;;1677763;29;21500;-51
2022/02/27 01:10:43;;;;;;;3.70;1.50;;;;;;;;;;1675802;29;21605;-52
2022/02/27 01:11:34;;;;;;;2.63;1.33;;;;;;;;;;1678238;29;21563;-50
2022/02/27 01:12:26;;;;;;;2.05;1.25;;;;;;;;;;1674258;29;21578;-50
2022/02/27 01:13:18;;;;;;;5.25;1.70;;;;;;;;;;1675197;29;21566;-52
2022/02/27 01:14:10;;;;;;;1.92;1.63;;;;;;;;;;1678164;29;21574;-53
2022/02/27 01:15:02;;;;;;;2.67;1.33;;;;;;;;;;1678075;29;21588;-53
2022/02/27 01:15:54;;;;;;;2.10;1.33;;;;;;;;;;1675629;29;21594;-51
2022/02/27 01:16:45;;;;;;;2.25;1.50;;;;;;;;;;1677688;29;21553;-50
2022/02/27 01:17:37;;;;;;;1.92;1.65;;;;;;;;;;1678143;29;22055;-50
2022/02/27 01:18:28;;;;;;;2.03;1.50;;;;;;;;;;1678032;29;21750;-51
2022/02/27 01:19:21;;;;;;;1.95;1.40;;;;;;;;;;1678276;29;21609;-52
2022/02/27 01:20:12;;;;;;;3.10;1.42;;;;;;;;;;1678185;29;21696;-50
2022/02/27 01:21:05;;;;;;;3.58;1.30;;;;;;;;;;1676625;29;21533;-51
2022/02/27 01:21:56;;;;;;;1.95;1.65;;;;;;;;;;1678131;29;22121;-52
2022/02/27 01:22:49;;;;;;;2.00;1.40;;;;;;;;;;1677885;29;21585;-52
2022/02/27 01:23:40;;;;;;;1.52;1.33;;;;;;;;;;1675059;29;21614;-51
2022/02/27 01:24:32;;;;;;;2.47;1.50;;;;;;;;;;1675107;29;21529;-49
2022/02/27 01:25:25;;;;;;;4.75;1.20;;;;;;;;;;1677277;29;21576;-52
2022/02/27 01:26:17;;;;;;;4.28;1.40;;;;;;;;;;1675730;29;21661;-51
2022/02/27 01:27:08;;;;;;;2.03;1.70;;;;;;;;;;1676670;29;21570;-53
2022/02/27 01:28:01;;;;;;;1.58;1.35;;;;;;;;;;1678084;29;21595;-52
2022/02/27 01:28:52;;;;;;;1.88;1.25;;;;;;;;;;1673058;29;21652;-52
2022/02/27 01:29:44;;;;;;;1.27;1.17;;;;;;;;;;1674348;29;21693;-53
2022/02/27 01:30:35;;;;;;;1.40;1.30;;;;;;;;;;1677584;29;21576;-50
2022/02/27 01:31:28;;;;;;;1.92;1.40;;;;;;;;;;1678018;29;22033;-52
2022/02/27 01:32:19;;;;;;;1.70;1.60;;;;;;;;;;1678071;29;21862;-53
2022/02/27 01:33:11;;;;;;;1.70;1.60;;;;;;;;;;1677480;29;21548;-51
2022/02/27 01:34:02;;;;;;;4.32;1.20;;;;;;;;;;1676612;29;21548;-51
2022/02/27 01:34:54;;;;;;;1.75;1.27;;;;;;;;;;1678051;29;22172;-52
2022/02/27 01:35:45;;;;;;;2.17;1.45;;;;;;;;;;1675494;29;21671;-49
2022/02/27 01:36:38;;;;;;;1.85;1.30;;;;;;;;;;1676124;29;21536;-52
2022/02/27 01:37:29;;;;;;;1.98;1.38;;;;;;;;;;1677922;29;21672;-51
2022/02/27 01:38:21;;;;;;;2.38;1.40;;;;;;;;;;1677956;29;21662;-50
2022/02/27 01:39:13;;;;;;;1.77;1.10;;;;;;;;;;1675742;29;21669;-53
2022/02/27 01:40:07;;;;;;;1.58;1.30;;;;;;;;;;1678145;29;21524;-50
2022/02/27 01:41:00;;;;;;;1.83;1.27;;;;;;;;;;1677950;29;21616;-51
2022/02/27 01:41:52;;;;;;;1.30;1.20;;;;;;;;;;1678125;29;21486;-49
2022/02/27 01:42:44;;;;;;;1.40;1.20;;;;;;;;;;1677362;29;21525;-57
2022/02/27 01:43:36;;;;;;;1.65;1.55;;;;;;;;;;1676953;29;21692;-58
2022/02/27 01:44:27;;;;;;;1.88;1.42;;;;;;;;;;1678079;29;21633;-58
2022/02/27 01:45:20;;;;;;;7.70;1.50;;;;;;;;;;1671417;29;21873;-57
2022/02/27 01:46:11;;;;;;;1.38;1.25;;;;;;;;;;1676487;29;21686;-58
2022/02/27 01:47:08;;;;;;;1.85;1.48;;;;;;;;;;1676975;29;21874;-58
2022/02/27 01:47:59;;;;;;;2.63;1.20;;;;;;;;;;1677826;29;21947;-58
2022/02/27 01:48:51;;;;;;;3.70;1.30;;;;;;;;;;1677740;29;21559;-58
2022/02/27 01:49:45;;;;;;;1.45;1.23;;;;;;;;;;1676020;29;21524;-58
2022/02/27 01:50:38;;;;;;;1.60;1.23;;;;;;;;;;1671588;29;22149;-58
2022/02/27 01:51:29;;;;;;;3.45;1.42;;;;;;;;;;1674140;29;21580;-58
2022/02/27 01:52:21;;;;;;;1.50;1.40;;;;;;;;;;1676153;29;21809;-58
2022/02/27 01:53:12;;;;;;;1.38;1.27;;;;;;;;;;1670511;29;21884;-58
2022/02/27 01:54:04;;;;;;;1.13;1.08;;;;;;;;;;1671048;29;21555;-58
2022/02/27 01:54:56;;;;;;;2.03;1.15;;;;;;;;;;1674072;29;21544;-58
2022/02/27 01:55:49;;;;;;;1.80;1.30;;;;;;;;;;1675330;29;21594;-58
2022/02/27 01:56:42;;;;;;;1.65;1.20;;;;;;;;;;1676886;29;21624;-58
2022/02/27 01:57:34;;;;;;;1.98;1.20;;;;;;;;;;1677953;29;21558;-58
2022/02/27 01:58:26;;;;;;;4.68;1.60;;;;;;;;;;1675312;29;22243;-58
2022/02/27 01:59:18;;;;;;;5.05;1.33;;;;;;;;;;1677982;29;21963;-58
2022/02/27 02:00:12;;;;;;;1.80;1.30;;;;;;;;;;1677866;29;21651;-58
2022/02/27 02:01:04;;;;;;;1.27;1.10;;;;;;;;;;1675269;29;21494;-58
2022/02/27 02:01:56;;;;;;;3.08;1.42;;;;;;;;;;1677775;29;21656;-58
2022/02/27 02:02:48;;;;;;;1.33;1.02;;;;;;;;;;1677824;29;22238;-58
2022/02/27 02:03:39;;;;;;;1.65;1.33;;;;;;;;;;1676025;29;22068;-58
2022/02/27 02:04:31;;;;;;;2.58;1.20;;;;;;;;;;1677139;29;21696;-58
2022/02/27 02:05:23;;;;;;;1.30;1.20;;;;;;;;;;1677248;29;21785;-58
2022/02/27 02:06:15;;;;;;;1.55;1.40;;;;;;;;;;1677660;29;21625;-58
2022/02/27 02:07:06;;;;;;;1.23;1.10;;;;;;;;;;1676758;29;21555;-58
2022/02/27 02:08:00;;;;;;;2.42;1.33;;;;;;;;;;1676211;29;21513;-58
2022/02/27 02:08:51;;;;;;;1.70;1.17;;;;;;;;;;1677758;29;21530;-58
2022/02/27 02:09:43;;;;;;;1.48;1.38;;;;;;;;;;1677373;29;21557;-58
2022/02/27 02:10:35;;;;;;;1.75;1.15;;;;;;;;;;1675858;29;21639;-58
2022/02/27 02:11:28;;;;;;;1.98;1.50;;;;;;;;;;1677804;29;21600;-58
2022/02/27 02:12:21;;;;;;;2.88;1.40;;;;;;;;;;1677885;29;21565;-58
2022/02/27 02:13:14;;;;;;;1.65;1.33;;;;;;;;;;1675051;29;21553;-58
2022/02/27 02:14:05;;;;;;;1.52;1.30;;;;;;;;;;1677927;29;21563;-58
2022/02/27 02:14:58;;;;;;;3.17;0.95;;;;;;;;;;1677863;29;22099;-58
2022/02/27 02:15:58;;;;;;;1.50;1.40;;;;;;;;;;1675535;29;21570;-58
2022/02/27 02:16:51;;;;;;;1.38;1.13;;;;;;;;;;1675002;29;21622;-58
2022/02/27 02:17:43;;;;;;;1.45;1.20;;;;;;;;;;1677702;29;21496;-58
2022/02/27 02:18:38;;;;;;;1.70;1.48;;;;;;;;;;1676329;29;21568;-58
2022/02/27 02:19:30;;;;;;;1.30;1.20;;;;;;;;;;1676791;29;22094;-58
2022/02/27 02:20:23;;;;;;;1.67;1.30;;;;;;;;;;1677665;29;22042;-59
2022/02/27 02:21:15;;;;;;;1.88;1.50;;;;;;;;;;1677213;29;21536;-59
2022/02/27 02:22:06;;;;;;;1.42;1.33;;;;;;;;;;1676722;29;22051;-59
2022/02/27 02:22:59;;;;;;;1.88;1.30;;;;;;;;;;1677857;29;21538;-58
2022/02/27 02:23:50;;;;;;;1.42;1.23;;;;;;;;;;1672717;29;21716;-58
2022/02/27 02:24:42;;;;;;;1.40;1.30;;;;;;;;;;1677782;29;22024;-58
2022/02/27 02:25:33;;;;;;;1.52;1.40;;;;;;;;;;1677348;29;21567;-58
2022/02/27 02:26:25;;;;;;;1.45;1.30;;;;;;;;;;1675701;29;21528;-59
2022/02/27 02:27:17;;;;;;;1.50;1.40;;;;;;;;;;1677216;29;21603;-59
2022/02/27 02:28:09;;;;;;;1.77;1.60;;;;;;;;;;1675831;29;21574;-57
2022/02/27 02:29:00;;;;;;;1.52;1.38;;;;;;;;;;1677734;29;21636;-58
2022/02/27 02:29:52;;;;;;;1.40;1.08;;;;;;;;;;1677664;29;21781;-58
2022/02/27 02:30:44;;;;;;;1.30;1.20;;;;;;;;;;1677775;29;21572;-58
2022/02/27 02:31:37;;;;;;;1.40;1.30;;;;;;;;;;1677892;29;21624;-58
2022/02/27 02:32:28;;;;;;;2.28;1.13;;;;;;;;;;1675686;29;22034;-58
2022/02/27 02:33:34;;;;;;;1.27;1.10;;;;;;;;;;1677766;29;21525;-58
2022/02/27 02:34:27;;;;;;;1.83;1.08;;;;;;;;;;1677436;29;22002;-58
2022/02/27 02:35:19;;;;;;;2.33;0.90;;;;;;;;;;1677021;29;21603;-57
2022/02/27 02:36:11;;;;;;;2.20;0.95;;;;;;;;;;1675308;29;21636;-58
2022/02/27 02:37:04;;;;;;;1.25;1.15;;;;;;;;;;1677586;29;22025;-58
2022/02/27 02:37:56;;;;;;;1.35;1.20;;;;;;;;;;1677701;29;21597;-57
2022/02/27 02:38:48;;;;;;;1.83;1.30;;;;;;;;;;1677740;29;21646;-58
2022/02/27 02:39:39;;;;;;;5.57;1.42;;;;;;;;;;1677292;29;22093;-58
2022/02/27 02:40:32;;;;;;;1.30;1.20;;;;;;;;;;1676109;29;21617;-58
2022/02/27 02:41:23;;;;;;;1.48;1.02;;;;;;;;;;1677709;29;21562;-59
2022/02/27 02:42:15;;;;;;;1.60;1.30;;;;;;;;;;1677581;29;22055;-59
2022/02/27 02:43:06;;;;;;;3.00;1.23;;;;;;;;;;1676405;29;21685;-58
2022/02/27 02:43:59;;;;;;;1.27;1.08;;;;;;;;;;1677576;29;21524;-59
2022/02/27 02:44:51;;;;;;;1.63;1.20;;;;;;;;;;1677670;29;22080;-58
2022/02/27 02:45:43;;;;;;;1.30;1.20;;;;;;;;;;1675331;29;21670;-59
2022/02/27 02:46:36;;;;;;;1.67;1.27;;;;;;;;;;1673488;29;21594;-58
2022/02/27 02:47:27;;;;;;;1.52;1.42;;;;;;;;;;1677475;29;22107;-58
2022/02/27 02:48:19;;;;;;;6.90;1.20;;;;;;;;;;1677593;29;21658;-58
2022/02/27 02:49:12;;;;;;;1.58;1.05;;;;;;;;;;1675141;29;21579;-58
2022/02/27 02:50:06;;;;;;;2.38;1.48;;;;;;;;;;1677711;29;21690;-58
2022/02/27 02:50:57;;;;;;;2.95;0.77;;;;;;;;;;1677591;29;21604;-58
2022/02/27 02:51:51;;;;;;;5.03;1.30;;;;;;;;;;1675107;29;21866;-58
2022/02/27 02:52:42;;;;;;;2.42;1.05;;;;;;;;;;1671112;29;21553;-59
2022/02/27 02:53:35;;;;;;;2.75;1.30;;;;;;;;;;1671155;29;22081;-59
2022/02/27 02:54:26;;;;;;;1.48;1.10;;;;;;;;;;1673765;29;21563;-58
2022/02/27 02:55:21;;;;;;;1.55;1.00;;;;;;;;;;1674615;29;21596;-58
2022/02/27 02:56:12;;;;;;;1.38;1.27;;;;;;;;;;1676060;29;21570;-59
2022/02/27 02:57:05;;;;;;;4.10;1.30;;;;;;;;;;1677240;29;22125;-59
2022/02/27 02:57:56;;;;;;;2.38;1.13;;;;;;;;;;1675411;29;21566;-59
2022/02/27 02:58:49;;;;;;;1.58;1.20;;;;;;;;;;1677664;29;21568;-59
2022/02/27 02:59:40;;;;;;;9.45;1.35;;;;;;;;;;1677152;29;21619;-59
2022/02/27 03:00:33;;;;;;;4.32;1.15;;;;;;;;;;1675545;29;21639;-58
2022/02/27 03:01:24;;;;;;;14.88;1.83;;;;;;;;;;1677642;29;21926;-58
2022/02/27 03:02:16;;;;;;;11.73;1.60;;;;;;;;;;1677514;29;21616;-58
2022/02/27 03:03:08;;;;;;;15.20;1.60;;;;;;;;;;1676270;29;21577;-52
2022/02/27 03:04:01;;;;;;;22.02;1.80;;;;;;;;;;1676529;29;22187;-50
2022/02/27 03:04:52;;;;;;;17.08;1.88;;;;;;;;;;1677637;29;21556;-51
2022/02/27 03:05:44;;;;;;;5.70;1.77;;;;;;;;;;1675908;29;21530;-53
2022/02/27 03:06:35;;;;;;;10.48;1.75;;;;;;;;;;1675011;29;22153;-53
2022/02/27 03:07:29;;;;;;;10.43;2.08;;;;;;;;;;1676279;29;21536;-52
2022/02/27 03:08:20;;;;;;;18.48;1.95;;;;;;;;;;1677459;29;22193;-53
2022/02/27 03:09:13;;;;;;;20.05;1.85;;;;;;;;;;1675961;29;21555;-50
2022/02/27 03:10:06;;;;;;;18.10;1.88;;;;;;;;;;1676542;29;21626;-51
2022/02/27 03:10:58;;;;;;;14.02;1.98;;;;;;;;;;1677476;29;22126;-53
2022/02/27 03:11:50;;;;;;;12.63;2.10;;;;;;;;;;1677654;29;22046;-52
2022/02/27 03:12:42;;;;;;;11.98;1.70;;;;;;;;;;1677169;29;22127;-53
2022/02/27 03:13:34;;;;;;;12.15;1.63;;;;;;;;;;1675438;29;21598;-53
2022/02/27 03:14:26;;;;;;;7.40;1.95;;;;;;;;;;1677629;29;21550;-50
2022/02/27 03:15:17;;;;;;;16.45;2.10;;;;;;;;;;1677408;29;21545;-50
2022/02/27 03:16:09;;;;;;;16.65;1.73;;;;;;;;;;1674521;29;22027;-52
2022/02/27 03:17:00;;;;;;;13.52;1.42;;;;;;;;;;1677509;29;22040;-53
2022/02/27 03:17:53;;;;;;;6.15;1.67;;;;;;;;;;1677523;29;21624;-53
2022/02/27 03:18:44;;;;;;;8.23;1.42;;;;;;;;;;1674724;29;21507;-54
2022/02/27 03:19:36;;;;;;;5.20;1.30;;;;;;;;;;1677652;29;21538;-50
2022/02/27 03:20:28;;;;;;;18.42;1.70;;;;;;;;;;1677437;29;22201;-51
2022/02/27 03:21:20;;;;;;;5.50;1.40;;;;;;;;;;1677644;29;21680;-54
2022/02/27 03:22:11;;;;;;;5.80;1.67;;;;;;;;;;1675636;29;21644;-53
2022/02/27 03:23:05;;;;;;;5.00;1.60;;;;;;;;;;1676784;29;21489;-50
2022/02/27 03:23:56;;;;;;;5.38;1.35;;;;;;;;;;1677268;29;21632;-53
2022/02/27 03:24:48;;;;;;;6.50;1.30;;;;;;;;;;1675965;29;22030;-50
2022/02/27 03:25:39;;;;;;;4.38;1.90;;;;;;;;;;1676007;29;21662;-51
2022/02/27 03:26:32;;;;;;;7.22;1.52;;;;;;;;;;1676326;29;22007;-53
2022/02/27 03:27:23;;;;;;;7.25;1.55;;;;;;;;;;1676186;29;21873;-53
2022/02/27 03:28:15;;;;;;;8.93;1.38;;;;;;;;;;1676258;29;21531;-51
2022/02/27 03:29:06;;;;;;;11.68;1.92;;;;;;;;;;1671127;29;22124;-55
2022/02/27 03:29:59;;;;;;;7.32;1.50;;;;;;;;;;1675874;29;21966;-49
2022/02/27 03:30:50;;;;;;;10.60;1.50;;;;;;;;;;1675562;29;21712;-51
2022/02/27 03:31:42;;;;;;;5.20;1.40;;;;;;;;;;1677617;29;21563;-52
2022/02/27 03:32:33;;;;;;;2.97;1.50;;;;;;;;;;1677438;29;21536;-51
2022/02/27 03:33:25;;;;;;;3.25;1.63;;;;;;;;;;1675796;29;22017;-53
2022/02/27 03:34:17;;;;;;;2.47;1.30;;;;;;;;;;1670929;29;21690;-53
2022/02/27 03:35:09;;;;;;;2.28;1.40;;;;;;;;;;1673586;29;22121;-51
2022/02/27 03:36:01;;;;;;;5.32;1.80;;;;;;;;;;1674408;29;21622;-52
2022/02/27 03:36:53;;;;;;;5.20;1.80;;;;;;;;;;1674449;29;21977;-53
2022/02/27 03:37:49;;;;;;;6.60;1.35;;;;;;;;;;1677263;29;21683;-52
2022/02/27 03:38:41;;;;;;;3.85;1.50;;;;;;;;;;1675835;29;21497;-53
2022/02/27 03:39:33;;;;;;;6.82;1.80;;;;;;;;;;1676860;29;21531;-51
2022/02/27 03:40:25;;;;;;;3.67;1.50;;;;;;;;;;1677305;29;21556;-50
2022/02/27 03:41:17;;;;;;;4.18;1.30;;;;;;;;;;1677579;29;21501;-52
2022/02/27 03:42:08;;;;;;;7.97;1.70;;;;;;;;;;1675912;29;21536;-53
2022/02/27 03:43:01;;;;;;;4.00;1.63;;;;;;;;;;1676468;29;21629;-51
2022/02/27 03:43:52;;;;;;;1.90;1.20;;;;;;;;;;1677114;29;21609;-52
2022/02/27 03:44:44;;;;;;;4.28;1.50;;;;;;;;;;1676965;29;21500;-52
2022/02/27 03:45:36;;;;;;;1.80;1.40;;;;;;;;;;1675239;29;22048;-50
2022/02/27 03:46:34;;;;;;;4.57;1.40;;;;;;;;;;1675996;29;21666;-51
2022/02/27 03:47:25;;;;;;;4.13;1.73;;;;;;;;;;1676544;29;21602;-53
2022/02/27 03:48:17;;;;;;;3.40;1.88;;;;;;;;;;1676526;29;21966;-50
2022/02/27 03:49:08;;;;;;;5.15;2.08;;;;;;;;;;1677425;29;21509;-50
2022/02/27 03:50:01;;;;;;;2.00;1.60;;;;;;;;;;1672987;29;22124;-52
2022/02/27 03:50:52;;;;;;;11.18;1.33;;;;;;;;;;1676074;29;21555;-52
2022/02/27 03:51:44;;;;;;;6.45;1.70;;;;;;;;;;1677436;29;21597;-52
2022/02/27 03:52:35;;;;;;;4.38;1.48;;;;;;;;;;1677156;29;21593;-51
2022/02/27 03:53:28;;;;;;;5.93;1.40;;;;;;;;;;1675242;29;21477;-52
2022/02/27 03:54:21;;;;;;;13.18;2.17;;;;;;;;;;1671207;29;21944;-50
2022/02/27 03:55:16;;;;;;;6.95;1.48;;;;;;;;;;1677150;29;21513;-53
2022/02/27 03:56:07;;;;;;;13.38;2.17;;;;;;;;;;1673957;29;21516;-50
2022/02/27 03:56:59;;;;;;;4.72;1.42;;;;;;;;;;1676196;29;22129;-51
2022/02/27 03:57:50;;;;;;;5.97;1.58;;;;;;;;;;1677346;29;21617;-51
2022/02/27 03:58:42;;;;;;;8.07;1.90;;;;;;;;;;1676322;29;21643;-52
2022/02/27 03:59:33;;;;;;;3.38;1.50;;;;;;;;;;1675758;29;21612;-49
2022/02/27 04:00:26;;;;;;;8.38;1.70;;;;;;;;;;1677461;29;21494;-52
2022/02/27 04:01:17;;;;;;;5.20;1.55;;;;;;;;;;1677370;29;21631;-51
2022/02/27 04:02:11;;;;;;;7.45;1.92;;;;;;;;;;1677320;29;21546;-49
2022/02/27 04:03:03;;;;;;;4.65;1.77;;;;;;;;;;1676311;29;22154;-52
2022/02/27 04:03:55;;;;;;;2.65;1.48;;;;;;;;;;1675846;29;22118;-50
2022/02/27 04:04:47;;;;;;;3.88;1.90;;;;;;;;;;1677484;29;21985;-51
2022/02/27 04:05:39;;;;;;;5.05;1.58;;;;;;;;;;1676514;29;21977;-52
2022/02/27 04:06:31;;;;;;;4.18;1.77;;;;;;;;;;1675915;29;21609;-52
2022/02/27 04:07:23;;;;;;;1.92;1.50;;;;;;;;;;1677343;29;21851;-49
2022/02/27 04:08:14;;;;;;;4.70;1.25;;;;;;;;;;1677193;29;21519;-53
2022/02/27 04:09:06;;;;;;;5.00;1.58;;;;;;;;;;1675807;29;22115;-52
2022/02/27 04:09:59;;;;;;;6.03;1.60;;;;;;;;;;1676364;29;21515;-52
2022/02/27 04:10:51;;;;;;;4.90;1.63;;;;;;;;;;1677436;29;21614;-53
2022/02/27 04:11:42;;;;;;;2.53;1.85;;;;;;;;;;1677346;29;21514;-54
2022/02/27 04:12:34;;;;;;;3.55;1.60;;;;;;;;;;1677281;29;21522;-53
2022/02/27 04:13:25;;;;;;;2.08;1.60;;;;;;;;;;1675527;29;21504;-54
2022/02/27 04:14:17;;;;;;;1.70;1.60;;;;;;;;;;1677438;29;22238;-51
2022/02/27 04:15:10;;;;;;;3.80;1.90;;;;;;;;;;1677211;29;21570;-50
2022/02/27 04:16:02;;;;;;;5.93;1.80;;;;;;;;;;1674626;29;21744;-51
2022/02/27 04:16:55;;;;;;;2.47;1.50;;;;;;;;;;1675430;29;21562;-54
2022/02/27 04:17:47;;;;;;;1.98;1.63;;;;;;;;;;1677458;29;21538;-52
2022/02/27 04:18:38;;;;;;;7.28;2.00;;;;;;;;;;1670218;29;21521;-54
2022/02/27 04:19:30;;;;;;;1.45;1.35;;;;;;;;;;1669536;29;21582;-51
2022/02/27 04:20:21;;;;;;;2.78;1.77;;;;;;;;;;1674871;29;21605;-50
2022/02/27 04:21:14;;;;;;;1.77;1.67;;;;;;;;;;1677220;29;21529;-54
2022/02/27 04:22:05;;;;;;;2.60;1.60;;;;;;;;;;1675571;29;22199;-54
2022/02/27 04:22:57;;;;;;;2.70;1.73;;;;;;;;;;1677302;29;21617;-54
2022/02/27 04:23:48;;;;;;;3.38;1.67;;;;;;;;;;1677152;29;21605;-54
2022/02/27 04:24:41;;;;;;;2.28;1.60;;;;;;;;;;1677309;29;21690;-53
2022/02/27 04:25:33;;;;;;;3.17;1.30;;;;;;;;;;1675709;29;21677;-54
2022/02/27 04:26:25;;;;;;;4.22;1.70;;;;;;;;;;1674129;29;21606;-56
2022/02/27 04:27:17;;;;;;;15.07;2.00;;;;;;;;;;1676383;29;21603;-53
2022/02/27 04:28:09;;;;;;;2.72;1.63;;;;;;;;;;1677155;29;21556;-51
2022/02/27 04:29:00;;;;;;;5.07;1.67;;;;;;;;;;1675581;29;21555;-53
2022/02/27 04:29:52;;;;;;;3.97;1.60;;;;;;;;;;1676132;29;21497;-53
2022/02/27 04:30:43;;;;;;;7.75;1.80;;;;;;;;;;1677085;29;21518;-52
2022/02/27 04:31:36;;;;;;;11.73;2.28;;;;;;;;;;1676890;29;21545;-53
2022/02/27 04:32:27;;;;;;;2.58;2.00;;;;;;;;;;1676354;29;21536;-53
2022/02/27 04:33:19;;;;;;;8.05;1.85;;;;;;;;;;1677227;29;21567;-53
2022/02/27 04:34:10;;;;;;;8.82;2.13;;;;;;;;;;1677031;29;22157;-54
2022/02/27 04:35:03;;;;;;;8.20;1.95;;;;;;;;;;1676823;29;22125;-53
2022/02/27 04:35:54;;;;;;;4.68;1.67;;;;;;;;;;1673875;29;21644;-53
2022/02/27 04:36:46;;;;;;;7.43;1.80;;;;;;;;;;1676914;29;21529;-53
2022/02/27 04:37:38;;;;;;;6.75;2.00;;;;;;;;;;1677202;29;21500;-53
2022/02/27 04:38:30;;;;;;;6.65;2.22;;;;;;;;;;1676399;29;22137;-53
2022/02/27 04:39:21;;;;;;;6.20;1.80;;;;;;;;;;1676061;29;21492;-53
2022/02/27 04:40:14;;;;;;;3.30;1.70;;;;;;;;;;1677207;29;22132;-54
2022/02/27 04:41:06;;;;;;;8.25;1.73;;;;;;;;;;1677315;29;21630;-54
2022/02/27 04:41:58;;;;;;;5.47;1.58;;;;;;;;;;1675133;29;21860;-53
2022/02/27 04:42:50;;;;;;;2.60;1.50;;;;;;;;;;1676829;29;22101;-53
2022/02/27 04:43:42;;;;;;;10.05;1.80;;;;;;;;;;1677100;29;21551;-52
2022/02/27 04:44:33;;;;;;;2.53;1.77;;;;;;;;;;1675669;29;21582;-51
2022/02/27 04:45:25;;;;;;;7.80;1.88;;;;;;;;;;1675231;29;21940;-53
2022/02/27 04:46:16;;;;;;;1.90;1.40;;;;;;;;;;1675516;29;22064;-50
2022/02/27 04:47:09;;;;;;;4.25;1.70;;;;;;;;;;1675548;29;22037;-52
2022/02/27 04:48:00;;;;;;;6.60;1.90;;;;;;;;;;1675939;29;22078;-54
2022/02/27 04:48:53;;;;;;;3.80;1.75;;;;;;;;;;1676901;29;21503;-49
2022/02/27 04:49:45;;;;;;;2.50;1.60;;;;;;;;;;1675477;29;21673;-53
2022/02/27 04:50:37;;;;;;;3.45;1.90;;;;;;;;;;1676107;29;21580;-51
2022/02/27 04:51:28;;;;;;;2.75;1.50;;;;;;;;;;1677229;29;21531;-50
2022/02/27 04:52:21;;;;;;;1.70;1.60;;;;;;;;;;1671524;29;21614;-53
2022/02/27 04:53:12;;;;;;;6.03;1.67;;;;;;;;;;1676062;29;21501;-52
2022/02/27 04:54:04;;;;;;;10.90;1.75;;;;;;;;;;1677351;29;21586;-52
2022/02/27 04:54:56;;;;;;;3.20;1.42;;;;;;;;;;1675998;29;21565;-53
2022/02/27 04:55:48;;;;;;;2.08;1.70;;;;;;;;;;1675423;29;21556;-51
2022/02/27 04:56:41;;;;;;;2.03;1.63;;;;;;;;;;1676145;29;22133;-52
2022/02/27 04:57:33;;;;;;;3.08;2.00;;;;;;;;;;1676166;29;21554;-53
2022/02/27 04:58:24;;;;;;;3.50;1.25;;;;;;;;;;1668879;29;21568;-51
2022/02/27 04:59:16;;;;;;;2.65;1.83;;;;;;;;;;1671392;29;21634;-52
2022/02/27 05:00:10;;;;;;;10.23;2.03;;;;;;;;;;1671763;29;22154;-50
2022/02/27 05:01:02;;;;;;;2.25;1.33;;;;;;;;;;1669839;29;21565;-52
2022/02/27 05:01:53;;;;;;;2.30;2.10;;;;;;;;;;1671391;29;21508;-52
2022/02/27 05:02:45;;;;;;;4.10;1.75;;;;;;;;;;1675710;29;21568;-52
2022/02/27 05:03:37;;;;;;;2.45;1.65;;;;;;;;;;1678267;29;21511;-52
2022/02/27 05:04:29;;;;;;;3.22;1.70;;;;;;;;;;1677462;29;21609;-53
2022/02/27 05:05:20;;;;;;;3.00;1.58;;;;;;;;;;1677019;29;21598;-53
2022/02/27 05:06:14;;;;;;;4.22;1.60;;;;;;;;;;1675743;29;21939;-51
2022/02/27 05:07:05;;;;;;;2.17;1.58;;;;;;;;;;1678207;29;21515;-53
2022/02/27 05:07:57;;;;;;;2.25;1.92;;;;;;;;;;1676185;29;21665;-51
2022/02/27 05:08:49;;;;;;;2.53;2.00;;;;;;;;;;1677626;29;22052;-51
2022/02/27 05:09:41;;;;;;;2.40;1.80;;;;;;;;;;1678060;29;21530;-52
2022/02/27 05:10:32;;;;;;;2.58;1.92;;;;;;;;;;1678220;29;21517;-53
2022/02/27 05:11:24;;;;;;;2.83;1.77;;;;;;;;;;1675514;29;22030;-53